Time;durP1;ratioP1;P1;durP2;ratioP2;P2;SDS_P1;SDS_P2;PMS_P1;PMS_P2;Temp;Humidity;BMP_temperature;BMP_pressure;BME280_temperature;BME280_humidity;BME280_pressure;Samples;Min_cycle;Max_cycle;Signal;HPM_P1;HPM_P2
2022/05/09 00:02:00;;;;;;;5.40;3.63;;;16.30;99.90;;;;;;5050806;28;20248;-73
2022/05/09 00:04:29;;;;;;;5.68;3.65;;;16.30;99.90;;;;;;5050234;28;20265;-73
2022/05/09 00:06:56;;;;;;;6.75;4.60;;;16.30;99.90;;;;;;5050828;28;20621;-76
2022/05/09 00:09:24;;;;;;;3.50;3.20;;;16.20;99.90;;;;;;5050553;28;20207;-76
2022/05/09 00:11:51;;;;;;;6.78;3.90;;;16.20;99.90;;;;;;5050767;28;20752;-77
2022/05/09 00:14:18;;;;;;;3.20;2.90;;;16.20;99.90;;;;;;5050281;28;20636;-77
2022/05/09 00:16:45;;;;;;;4.78;3.08;;;16.20;99.90;;;;;;5050732;28;20260;-75
2022/05/09 00:19:17;;;;;;;4.72;3.70;;;16.20;99.90;;;;;;5050622;28;20206;-76
2022/05/09 00:21:46;;;;;;;4.93;4.13;;;16.10;99.90;;;;;;5050790;28;20253;-76
2022/05/09 00:24:14;;;;;;;5.28;4.78;;;15.90;99.90;;;;;;5050359;28;20207;-77
2022/05/09 00:26:42;;;;;;;4.38;3.40;;;15.80;99.90;;;;;;5050518;28;20332;-76
2022/05/09 00:29:10;;;;;;;5.38;3.92;;;15.80;99.90;;;;;;5049942;28;20666;-75
2022/05/09 00:31:38;;;;;;;4.18;3.55;;;15.90;99.90;;;;;;5050775;28;20211;-71
2022/05/09 00:34:06;;;;;;;5.30;3.90;;;15.90;99.90;;;;;;5051059;28;20234;-71
2022/05/09 00:36:32;;;;;;;4.50;4.10;;;16.00;99.90;;;;;;5050462;28;20588;-75
2022/05/09 00:39:01;;;;;;;9.45;4.95;;;16.00;99.90;;;;;;5050424;28;20206;-75
2022/05/09 00:41:37;;;;;;;3.83;3.40;;;15.90;99.90;;;;;;5050147;28;20431;-76
2022/05/09 00:44:06;;;;;;;7.15;4.35;;;15.80;99.90;;;;;;5050922;28;20194;-76
2022/05/09 00:46:34;;;;;;;5.75;3.53;;;15.70;99.90;;;;;;5050632;28;20236;-76
2022/05/09 00:49:06;;;;;;;8.82;3.85;;;15.80;99.90;;;;;;5050958;28;20573;-75
2022/05/09 00:51:34;;;;;;;6.13;3.58;;;15.70;99.90;;;;;;5050463;28;20202;-76
2022/05/09 00:54:03;;;;;;;4.28;2.90;;;15.60;99.90;;;;;;5053864;28;20294;-70
2022/05/09 00:56:36;;;;;;;7.28;3.78;;;15.60;99.90;;;;;;5053654;28;20207;-70
2022/05/09 00:59:07;;;;;;;5.00;3.60;;;15.50;99.90;;;;;;5054522;28;20290;-70
2022/05/09 01:01:34;;;;;;;4.45;3.08;;;15.50;99.90;;;;;;5054278;28;20233;-70
2022/05/09 01:04:07;;;;;;;7.55;3.85;;;15.40;99.90;;;;;;5054544;28;20206;-69
2022/05/09 01:06:34;;;;;;;5.63;3.97;;;15.40;99.90;;;;;;5054237;28;20210;-69
2022/05/09 01:09:02;;;;;;;4.25;3.45;;;15.30;99.90;;;;;;5054069;28;20594;-70
2022/05/09 01:11:30;;;;;;;3.97;3.58;;;15.40;99.90;;;;;;5053553;28;20203;-69
2022/05/09 01:14:04;;;;;;;5.25;3.67;;;15.40;99.90;;;;;;5053890;28;20246;-70
2022/05/09 01:16:31;;;;;;;3.58;3.28;;;15.40;99.90;;;;;;5053431;28;20679;-71
2022/05/09 01:19:01;;;;;;;3.70;3.22;;;15.40;99.90;;;;;;5053834;28;20615;-71
2022/05/09 01:21:34;;;;;;;4.18;3.55;;;15.40;99.90;;;;;;5053480;28;20253;-73
2022/05/09 01:24:01;;;;;;;4.72;3.17;;;15.40;99.90;;;;;;5058380;28;20720;-72
2022/05/09 01:26:28;;;;;;;5.53;2.65;;;15.30;99.90;;;;;;5053189;28;20207;-74
2022/05/09 01:29:01;;;;;;;3.72;3.35;;;15.30;99.90;;;;;;5053800;28;20253;-75
2022/05/09 01:31:28;;;;;;;2.78;2.58;;;15.20;99.90;;;;;;5053234;28;20674;-74
2022/05/09 01:33:57;;;;;;;6.13;3.08;;;15.20;99.90;;;;;;5053596;28;20256;-74
2022/05/09 01:36:29;;;;;;;3.45;2.75;;;15.20;99.90;;;;;;5052934;28;20207;-73
2022/05/09 01:39:00;;;;;;;4.00;3.60;;;15.20;99.90;;;;;;5053452;28;20242;-73
2022/05/09 01:41:30;;;;;;;4.18;3.53;;;15.10;99.90;;;;;;5052719;28;20666;-74
2022/05/09 01:43:57;;;;;;;3.47;3.17;;;15.10;99.90;;;;;;5053406;28;20256;-72
2022/05/09 01:46:28;;;;;;;5.05;3.05;;;15.10;99.90;;;;;;5052802;28;20724;-73
2022/05/09 01:51:42;;;;;;;3.63;3.13;;;15.10;99.90;;;;;;5053277;28;20229;-72
2022/05/09 01:54:12;;;;;;;4.32;3.40;;;15.10;99.90;;;;;;5052709;28;20202;-73
2022/05/09 01:56:41;;;;;;;5.03;3.00;;;15.10;99.90;;;;;;5053164;28;20257;-69
2022/05/09 01:59:11;;;;;;;3.00;2.80;;;14.90;99.90;;;;;;5052981;28;20260;-68
2022/05/09 02:01:41;;;;;;;3.42;3.08;;;15.00;99.90;;;;;;5053208;28;20260;-68
2022/05/09 02:04:08;;;;;;;5.55;2.92;;;14.90;99.90;;;;;;5051365;28;20199;-71
2022/05/09 02:06:35;;;;;;;4.13;3.63;;;14.90;99.90;;;;;;5053283;28;20268;-73
2022/05/09 02:09:02;;;;;;;3.05;2.75;;;15.00;99.90;;;;;;5052960;28;20610;-73
2022/05/09 02:11:30;;;;;;;3.10;2.20;;;15.00;99.90;;;;;;5052402;28;20272;-73
2022/05/09 02:13:57;;;;;;;4.88;2.95;;;15.00;99.90;;;;;;5053037;28;20202;-74
2022/05/09 02:16:25;;;;;;;3.58;3.03;;;15.00;99.90;;;;;;5052387;28;20210;-75
2022/05/09 02:18:52;;;;;;;4.68;3.65;;;14.90;99.90;;;;;;5052898;28;20203;-72
2022/05/09 02:21:19;;;;;;;7.43;4.00;;;14.80;99.90;;;;;;5052463;28;20202;-76
2022/05/09 02:23:46;;;;;;;5.78;4.97;;;14.80;99.90;;;;;;5052353;28;20583;-74
2022/05/09 02:26:13;;;;;;;9.63;6.03;;;14.80;99.90;;;;;;5052451;28;20206;-72
2022/05/09 02:28:41;;;;;;;8.48;7.53;;;14.80;99.90;;;;;;5052604;28;20276;-75
2022/05/09 02:31:08;;;;;;;7.45;6.65;;;14.80;99.90;;;;;;5052264;28;20199;-72
2022/05/09 02:33:35;;;;;;;8.63;7.75;;;14.80;99.90;;;;;;5052898;28;20210;-71
2022/05/09 02:36:02;;;;;;;11.20;7.47;;;14.80;99.90;;;;;;5052616;28;20550;-71
2022/05/09 02:38:29;;;;;;;8.10;5.95;;;14.60;99.90;;;;;;5051577;28;20261;-69
2022/05/09 02:40:57;;;;;;;7.63;6.85;;;14.70;99.90;;;;;;5052203;28;20624;-69
2022/05/09 02:43:24;;;;;;;10.75;6.97;;;14.70;99.90;;;;;;5052010;28;20564;-70
2022/05/09 02:45:52;;;;;;;6.75;6.15;;;14.60;99.90;;;;;;5052357;28;20382;-69
2022/05/09 02:48:19;;;;;;;8.07;5.20;;;14.60;99.90;;;;;;5051706;28;20230;-70
2022/05/09 02:50:46;;;;;;;5.40;4.25;;;14.60;99.90;;;;;;5051904;28;20207;-74
2022/05/09 02:53:13;;;;;;;8.05;5.15;;;14.60;99.90;;;;;;5051579;28;20207;-72
2022/05/09 02:55:40;;;;;;;10.05;4.35;;;14.50;99.90;;;;;;5052200;28;20580;-74
2022/05/09 02:58:08;;;;;;;4.57;4.13;;;14.40;99.90;;;;;;5051907;28;20249;-74
2022/05/09 03:00:35;;;;;;;4.97;4.50;;;14.40;99.90;;;;;;5052374;28;20256;-76
2022/05/09 03:05:48;;;;;;;4.40;3.97;;;14.40;99.90;;;;;;5051701;28;20241;-73
2022/05/09 03:08:17;;;;;;;5.40;3.50;;;14.30;99.90;;;;;;5051420;28;20238;-74
2022/05/09 03:10:45;;;;;;;4.20;3.80;;;14.20;99.90;;;;;;5051766;28;20666;-74
2022/05/09 03:13:14;;;;;;;4.97;4.43;;;14.20;99.90;;;;;;5051363;28;20253;-74
2022/05/09 03:15:43;;;;;;;5.72;3.92;;;14.10;99.90;;;;;;5051101;28;20206;-75
2022/05/09 03:18:12;;;;;;;3.92;3.53;;;14.20;99.90;;;;;;5051331;28;20261;-74
2022/05/09 03:20:40;;;;;;;4.70;3.13;;;14.10;99.90;;;;;;5051550;28;20740;-74
2022/05/09 03:23:08;;;;;;;4.57;3.83;;;14.10;99.90;;;;;;5051274;28;20261;-74
2022/05/09 03:25:37;;;;;;;3.40;3.08;;;14.00;99.90;;;;;;5051712;28;20210;-70
2022/05/09 03:28:06;;;;;;;5.63;3.65;;;14.10;99.90;;;;;;5051421;28;20296;-71
2022/05/09 03:30:34;;;;;;;4.10;3.80;;;14.20;99.90;;;;;;5051626;28;20308;-75
2022/05/09 03:33:01;;;;;;;3.60;3.30;;;14.20;99.90;;;;;;5051654;28;20199;-73
2022/05/09 03:35:30;;;;;;;3.58;3.28;;;14.20;99.90;;;;;;5050841;28;20642;-68
2022/05/09 03:37:57;;;;;;;5.38;3.55;;;14.20;99.90;;;;;;5051143;28;20210;-79
2022/05/09 03:40:24;;;;;;;4.90;3.10;;;14.10;99.90;;;;;;5050845;28;20206;-75
2022/05/09 03:42:51;;;;;;;3.80;3.45;;;14.10;99.90;;;;;;5051203;28;20210;-75
2022/05/09 03:45:19;;;;;;;7.22;4.15;;;14.10;99.90;;;;;;5050764;28;20215;-75
2022/05/09 03:47:46;;;;;;;5.38;4.35;;;14.00;99.90;;;;;;5051150;28;20222;-73
2022/05/09 03:50:14;;;;;;;5.82;3.22;;;13.90;99.90;;;;;;5050579;28;20206;-74
2022/05/09 03:52:42;;;;;;;5.47;3.60;;;13.90;99.90;;;;;;5051037;28;20207;-74
2022/05/09 03:55:10;;;;;;;4.28;3.20;;;14.00;99.90;;;;;;5050567;28;20662;-74
2022/05/09 03:57:45;;;;;;;4.68;3.47;;;14.00;99.90;;;;;;5050850;28;20682;-72
2022/05/09 04:00:14;;;;;;;6.88;3.90;;;13.90;99.90;;;;;;5050409;28;20203;-74
2022/05/09 04:02:42;;;;;;;4.85;4.13;;;13.80;99.90;;;;;;5051043;28;20214;-73
2022/05/09 04:05:14;;;;;;;4.60;4.03;;;13.90;99.90;;;;;;5050197;28;20198;-72
2022/05/09 04:07:43;;;;;;;6.30;3.75;;;13.90;99.90;;;;;;5066564;28;20232;-71
2022/05/09 04:10:10;;;;;;;6.20;4.07;;;13.90;99.90;;;;;;5055924;28;20263;-72
2022/05/09 04:12:37;;;;;;;5.88;3.30;;;13.70;99.90;;;;;;5065117;28;20215;-72
2022/05/09 04:17:49;;;;;;;4.95;3.63;;;13.90;99.90;;;;;;5070956;28;20220;-69
2022/05/09 04:20:18;;;;;;;4.10;3.58;;;13.90;99.90;;;;;;5071081;28;20210;-73
2022/05/09 04:22:56;;;;;;;5.07;3.15;;;13.90;99.90;;;;;;5071367;28;20213;-76
2022/05/09 04:25:29;;;;;;;5.03;3.63;;;13.90;99.90;;;;;;5059152;28;20286;-76
2022/05/09 04:27:57;;;;;;;4.30;3.90;;;13.80;99.90;;;;;;5052367;28;20245;-70
2022/05/09 04:30:25;;;;;;;6.20;3.53;;;13.70;99.90;;;;;;5054084;28;20218;-70
2022/05/09 04:32:51;;;;;;;4.40;3.20;;;13.80;99.90;;;;;;5054633;28;20574;-74
2022/05/09 04:35:20;;;;;;;12.18;6.32;;;13.60;99.90;;;;;;5053959;28;20667;-75
2022/05/09 04:37:49;;;;;;;5.70;3.80;;;13.60;99.90;;;;;;5054243;28;20781;-73
2022/05/09 04:40:18;;;;;;;5.18;3.70;;;13.70;99.90;;;;;;5054023;28;20667;-72
2022/05/09 04:42:45;;;;;;;8.88;4.18;;;13.70;99.90;;;;;;5054633;28;20260;-72
2022/05/09 04:45:14;;;;;;;8.77;4.05;;;13.70;99.90;;;;;;5054187;28;20206;-74
2022/05/09 04:47:42;;;;;;;7.55;4.03;;;13.60;99.90;;;;;;5054378;28;20209;-71
2022/05/09 04:50:11;;;;;;;4.00;3.60;;;13.60;99.90;;;;;;5053780;28;20210;-72
2022/05/09 04:52:39;;;;;;;4.47;3.10;;;13.70;99.90;;;;;;5054371;28;20207;-70
2022/05/09 04:55:08;;;;;;;6.22;4.00;;;13.70;99.90;;;;;;5054232;28;20272;-71
2022/05/09 04:57:35;;;;;;;6.47;4.70;;;13.70;99.90;;;;;;5067486;28;20218;-74
2022/05/09 05:00:03;;;;;;;5.28;4.75;;;13.50;99.90;;;;;;5073905;28;20579;-76
2022/05/09 05:02:31;;;;;;;6.55;4.50;;;13.40;99.90;;;;;;5073602;28;20240;-71
2022/05/09 05:04:58;;;;;;;5.40;4.90;;;13.40;99.90;;;;;;5073465;28;20232;-71
2022/05/09 05:07:25;;;;;;;7.57;4.15;;;13.40;99.90;;;;;;5073681;28;20202;-76
2022/05/09 05:09:52;;;;;;;5.60;4.30;;;13.40;99.90;;;;;;5073809;28;20291;-74
2022/05/09 05:12:21;;;;;;;7.68;3.88;;;13.60;99.90;;;;;;5073298;28;20279;-76
2022/05/09 05:14:48;;;;;;;3.80;3.13;;;13.60;99.90;;;;;;5073426;28;20206;-75
2022/05/09 05:17:15;;;;;;;11.25;3.92;;;13.60;99.90;;;;;;5073367;28;20214;-71
2022/05/09 05:19:44;;;;;;;12.88;5.13;;;13.70;99.90;;;;;;5059992;28;20210;-71
2022/05/09 05:22:15;;;;;;;5.03;3.38;;;13.80;99.90;;;;;;5073206;28;20202;-71
2022/05/09 05:24:44;;;;;;;7.35;3.70;;;13.90;99.90;;;;;;5073635;28;20264;-71
2022/05/09 05:27:12;;;;;;;6.63;4.32;;;13.80;99.90;;;;;;5070485;28;20199;-71
2022/05/09 05:29:42;;;;;;;5.78;4.28;;;13.80;99.90;;;;;;5069411;28;20233;-72
2022/05/09 05:32:16;;;;;;;6.22;4.45;;;13.90;99.90;;;;;;5072920;28;20209;-70
2022/05/09 05:34:43;;;;;;;6.25;3.83;;;14.00;99.90;;;;;;5072811;28;20198;-72
2022/05/09 05:37:10;;;;;;;7.15;4.97;;;14.10;99.90;;;;;;5073139;28;20209;-71
2022/05/09 05:39:38;;;;;;;6.97;5.50;;;14.10;99.90;;;;;;5073024;28;20260;-70
2022/05/09 05:42:06;;;;;;;6.88;4.50;;;14.10;99.90;;;;;;5073991;28;20212;-70
2022/05/09 05:44:33;;;;;;;6.50;4.53;;;14.10;99.90;;;;;;5073515;28;20202;-71
2022/05/09 05:47:05;;;;;;;9.98;4.90;;;14.10;99.90;;;;;;5073172;28;20202;-70
2022/05/09 05:49:33;;;;;;;5.15;4.35;;;14.30;99.90;;;;;;5073052;28;20307;-71
2022/05/09 05:52:03;;;;;;;10.07;5.78;;;14.40;99.90;;;;;;5073341;28;20255;-71
2022/05/09 05:54:31;;;;;;;6.25;4.07;;;14.50;99.90;;;;;;5072957;28;20202;-69
2022/05/09 05:56:58;;;;;;;7.13;3.95;;;14.60;99.90;;;;;;5073222;28;20671;-69
2022/05/09 05:59:26;;;;;;;6.97;4.38;;;14.70;99.90;;;;;;5072845;28;20207;-69
2022/05/09 06:01:53;;;;;;;4.93;4.43;;;14.70;99.90;;;;;;5073060;28;20281;-69
2022/05/09 06:04:22;;;;;;;6.07;5.40;;;14.80;99.90;;;;;;5072586;28;20209;-69
2022/05/09 06:06:50;;;;;;;8.00;4.70;;;14.80;99.90;;;;;;5072949;28;20220;-69
2022/05/09 06:09:17;;;;;;;6.82;4.97;;;14.90;99.90;;;;;;5072780;28;20303;-69
2022/05/09 06:11:44;;;;;;;5.93;4.45;;;15.00;99.90;;;;;;5072821;28;20207;-69
2022/05/09 06:14:13;;;;;;;5.10;3.85;;;15.10;99.90;;;;;;5072495;28;20750;-70
2022/05/09 06:16:40;;;;;;;5.30;4.15;;;15.20;99.90;;;;;;5072552;28;20604;-69
2022/05/09 06:19:09;;;;;;;5.75;4.28;;;15.20;99.90;;;;;;5072755;28;20206;-69
2022/05/09 06:21:38;;;;;;;7.40;4.47;;;15.30;99.90;;;;;;5072971;28;20237;-69
2022/05/09 06:24:07;;;;;;;6.43;4.40;;;15.40;99.90;;;;;;5073211;28;20595;-70
2022/05/09 06:26:35;;;;;;;5.60;4.45;;;15.50;99.90;;;;;;5073065;28;20240;-69
2022/05/09 06:29:06;;;;;;;6.78;4.85;;;15.70;99.90;;;;;;5072885;28;20229;-69
2022/05/09 06:31:34;;;;;;;12.70;5.22;;;15.60;99.90;;;;;;5072536;28;20233;-69
2022/05/09 06:34:01;;;;;;;8.45;5.13;;;15.70;99.90;;;;;;5072475;28;20210;-69
2022/05/09 06:36:28;;;;;;;7.32;5.10;;;15.80;99.90;;;;;;5072054;28;20511;-69
2022/05/09 06:38:57;;;;;;;6.88;3.80;;;15.90;99.90;;;;;;5072233;28;20218;-70
2022/05/09 06:41:24;;;;;;;6.85;4.38;;;16.00;99.90;;;;;;5072047;28;20251;-69
2022/05/09 06:43:51;;;;;;;5.63;4.07;;;16.00;99.90;;;;;;5072289;28;20202;-69
2022/05/09 06:46:18;;;;;;;9.20;4.60;;;16.20;99.90;;;;;;5071551;28;20674;-70
2022/05/09 06:48:45;;;;;;;7.18;4.07;;;16.20;99.90;;;;;;5071913;28;20647;-69
2022/05/09 06:51:12;;;;;;;5.65;4.40;;;16.20;99.90;;;;;;5071254;28;20233;-69
2022/05/09 06:53:39;;;;;;;3.95;3.53;;;16.30;99.90;;;;;;5072321;28;20198;-69
2022/05/09 06:56:09;;;;;;;5.93;3.50;;;16.50;99.90;;;;;;5072381;28;20251;-69
2022/05/09 06:58:36;;;;;;;6.70;4.70;;;16.80;99.90;;;;;;5072044;28;20210;-69
2022/05/09 07:01:13;;;;;;;6.53;4.47;;;16.70;99.90;;;;;;5072098;28;20248;-69
2022/05/09 07:03:40;;;;;;;6.40;3.50;;;16.70;99.90;;;;;;5071941;28;20201;-69
2022/05/09 07:06:07;;;;;;;4.43;4.03;;;16.70;99.90;;;;;;5072000;28;20251;-69
2022/05/09 07:08:34;;;;;;;8.43;4.05;;;16.80;99.90;;;;;;5072036;28;20248;-69
2022/05/09 07:11:02;;;;;;;7.00;4.65;;;16.90;99.90;;;;;;5071969;28;20209;-70
2022/05/09 07:13:30;;;;;;;4.57;3.30;;;17.00;99.90;;;;;;5070808;28;20236;-71
2022/05/09 07:15:57;;;;;;;5.07;3.50;;;17.10;99.90;;;;;;5061619;28;20260;-70
2022/05/09 07:18:26;;;;;;;7.95;4.05;;;17.30;99.90;;;;;;5063084;28;20206;-71
2022/05/09 07:20:54;;;;;;;5.35;4.57;;;17.30;99.90;;;;;;5061257;28;20678;-69
2022/05/09 07:23:21;;;;;;;6.32;4.57;;;17.40;99.90;;;;;;5059042;28;20635;-71
2022/05/09 07:25:50;;;;;;;5.28;4.70;;;17.50;99.90;;;;;;5065608;28;20248;-72
2022/05/09 07:28:19;;;;;;;10.48;4.82;;;17.70;99.90;;;;;;5059804;28;20653;-72
2022/05/09 07:30:48;;;;;;;8.52;4.30;;;17.70;99.90;;;;;;5061544;28;20678;-72
2022/05/09 07:33:17;;;;;;;5.22;4.38;;;17.90;99.90;;;;;;5068304;28;20218;-70
2022/05/09 07:35:45;;;;;;;6.47;4.22;;;18.00;99.90;;;;;;5070914;28;20807;-70
2022/05/09 07:38:12;;;;;;;6.97;3.47;;;18.10;99.90;;;;;;5056941;28;20219;-70
2022/05/09 07:40:40;;;;;;;7.03;3.83;;;18.00;99.90;;;;;;5063954;28;20246;-71
2022/05/09 07:43:12;;;;;;;5.45;3.75;;;18.10;99.90;;;;;;5064108;28;20207;-71
2022/05/09 07:45:39;;;;;;;6.82;3.97;;;18.20;99.90;;;;;;5051246;28;20218;-71
2022/05/09 07:48:08;;;;;;;5.55;3.83;;;18.20;99.90;;;;;;5053922;28;20210;-71
2022/05/09 07:50:36;;;;;;;5.25;4.75;;;18.30;99.90;;;;;;5064400;28;20238;-70
2022/05/09 07:53:06;;;;;;;7.85;5.03;;;18.80;99.90;;;;;;5056133;28;20210;-71
2022/05/09 07:55:33;;;;;;;10.05;5.07;;;18.90;99.90;;;;;;5050148;28;20215;-71
2022/05/09 07:58:01;;;;;;;8.93;4.45;;;18.90;99.90;;;;;;5051657;28;20211;-71
2022/05/09 08:00:28;;;;;;;7.63;4.72;;;18.90;99.90;;;;;;5066389;28;20240;-71
2022/05/09 08:02:55;;;;;;;9.45;5.03;;;18.90;99.90;;;;;;5063737;28;20206;-72
2022/05/09 08:05:23;;;;;;;6.70;3.92;;;19.20;99.90;;;;;;5066007;28;20260;-72
2022/05/09 08:07:50;;;;;;;4.53;3.90;;;19.20;99.90;;;;;;5066357;28;20206;-72
2022/05/09 08:10:17;;;;;;;4.38;3.97;;;19.30;99.90;;;;;;5060228;28;20280;-73
2022/05/09 08:12:46;;;;;;;7.47;3.75;;;19.40;99.90;;;;;;5061645;28;20267;-71
2022/05/09 08:15:16;;;;;;;5.90;3.78;;;19.50;99.90;;;;;;5070557;28;20255;-69
2022/05/09 08:17:45;;;;;;;10.32;4.20;;;19.60;99.90;;;;;;5070903;28;20265;-71
2022/05/09 08:20:13;;;;;;;4.53;3.90;;;19.80;99.90;;;;;;5062969;28;20670;-70
2022/05/09 08:22:41;;;;;;;7.18;4.70;;;19.80;99.90;;;;;;5070317;28;20206;-70
2022/05/09 08:25:10;;;;;;;7.65;5.53;;;19.90;99.90;;;;;;5069887;28;20281;-70
2022/05/09 08:27:37;;;;;;;7.15;4.20;;;20.30;99.90;;;;;;5056284;28;20285;-69
2022/05/09 08:30:05;;;;;;;8.27;3.85;;;20.40;99.90;;;;;;5070645;28;20229;-71
2022/05/09 08:32:34;;;;;;;7.03;4.45;;;20.70;99.90;;;;;;5060795;28;20249;-68
2022/05/09 08:35:01;;;;;;;7.72;3.90;;;20.80;99.90;;;;;;5057344;28;20202;-70
2022/05/09 08:37:28;;;;;;;4.10;3.35;;;20.60;99.90;;;;;;5066875;28;20213;-70
2022/05/09 08:39:56;;;;;;;8.05;3.45;;;20.50;99.90;;;;;;5067653;28;20202;-70
2022/05/09 08:42:27;;;;;;;5.57;3.95;;;20.60;99.90;;;;;;5057539;28;20681;-70
2022/05/09 08:45:17;;;;;;;6.00;3.65;;;20.70;99.90;;;;;;5061867;28;20260;-69
2022/05/09 08:48:11;;;;;;;5.78;3.95;;;20.80;99.90;;;;;;5062914;28;20233;-68
2022/05/09 08:50:53;;;;;;;7.47;3.55;;;20.80;99.90;;;;;;5056054;28;20332;-68
2022/05/09 08:53:24;;;;;;;4.30;3.95;;;20.80;99.90;;;;;;5064231;28;20206;-70
2022/05/09 08:55:54;;;;;;;5.15;3.50;;;21.00;99.90;;;;;;5052309;28;20214;-70
2022/05/09 08:58:37;;;;;;;4.15;3.67;;;21.10;99.90;;;;;;5063810;28;20248;-72
2022/05/09 09:01:06;;;;;;;7.68;3.78;;;21.60;99.90;;;;;;5069154;28;20263;-69
2022/05/09 09:03:37;;;;;;;5.97;3.50;;;21.70;99.90;;;;;;5056568;28;20214;-70
2022/05/09 09:06:11;;;;;;;5.88;4.30;;;21.90;99.90;;;;;;5065487;28;20660;-69
2022/05/09 09:08:58;;;;;;;5.60;3.58;;;22.50;99.90;;;;;;5060586;28;20203;-69
2022/05/09 09:11:37;;;;;;;5.75;3.25;;;25.30;99.90;;;;;;5056255;28;20219;-70
2022/05/09 09:14:11;;;;;;;7.43;4.30;;;26.10;99.90;;;;;;5051621;28;20289;-70
2022/05/09 09:16:56;;;;;;;4.60;3.92;;;24.30;99.90;;;;;;5053557;28;20738;-68
2022/05/09 09:19:46;;;;;;;4.07;3.60;;;24.30;99.90;;;;;;5051852;28;20214;-70
2022/05/09 09:22:23;;;;;;;3.97;3.58;;;26.10;99.90;;;;;;5044155;28;20260;-69
2022/05/09 09:25:12;;;;;;;7.68;4.65;;;25.60;99.90;;;;;;5052782;28;20678;-70
2022/05/09 09:27:43;;;;;;;10.68;4.15;;;27.60;99.90;;;;;;5063887;28;20248;-69
2022/05/09 09:30:13;;;;;;;5.53;3.95;;;28.80;99.90;;;;;;5070949;28;20301;-71
2022/05/09 09:32:43;;;;;;;6.25;3.90;;;29.90;99.90;;;;;;5059468;28;20203;-71
2022/05/09 09:35:19;;;;;;;4.30;3.50;;;30.60;99.90;;;;;;5068785;28;20202;-69
2022/05/09 09:37:53;;;;;;;9.45;4.35;;;33.10;99.90;;;;;;5062942;28;20696;-69
2022/05/09 09:40:20;;;;;;;3.83;3.30;;;34.40;99.90;;;;;;5067355;28;20734;-69
2022/05/09 09:42:52;;;;;;;5.18;4.32;;;32.50;99.90;;;;;;5064822;28;20214;-70
2022/05/09 09:45:28;;;;;;;9.52;3.92;;;34.70;99.90;;;;;;5066791;28;20259;-70
2022/05/09 09:48:12;;;;;;;7.45;4.53;;;35.60;99.90;;;;;;5070214;28;20206;-69
2022/05/09 09:50:52;;;;;;;4.43;3.78;;;35.90;99.90;;;;;;5061124;28;20265;-68
2022/05/09 09:53:31;;;;;;;4.50;3.55;;;36.50;99.90;;;;;;5059613;28;20657;-70
2022/05/09 09:56:05;;;;;;;6.57;4.28;;;32.10;99.90;;;;;;5072793;28;20745;-73
2022/05/09 09:58:34;;;;;;;4.20;3.42;;;30.20;99.90;;;;;;5072142;28;20263;-71
2022/05/09 10:01:07;;;;;;;4.78;4.32;;;31.90;99.90;;;;;;5072492;28;20262;-72
2022/05/09 10:03:38;;;;;;;4.63;3.40;;;32.50;99.90;;;;;;5073131;28;20209;-70
2022/05/09 10:06:14;;;;;;;7.57;4.00;;;32.90;99.90;;;;;;5072450;28;20210;-70
2022/05/09 10:08:42;;;;;;;4.55;3.80;;;32.00;99.90;;;;;;5072290;28;20205;-71
2022/05/09 10:11:12;;;;;;;3.97;3.33;;;31.80;99.90;;;;;;5072199;28;20286;-72
2022/05/09 10:13:45;;;;;;;5.18;3.58;;;30.70;99.90;;;;;;5072106;28;20212;-72
2022/05/09 10:16:14;;;;;;;4.63;4.20;;;31.90;99.90;;;;;;5071913;28;20206;-74
2022/05/09 10:18:46;;;;;;;3.78;3.40;;;31.60;99.90;;;;;;5060506;28;20650;-72
2022/05/09 10:24:47;;;;;;;3.42;3.17;;;33.90;99.90;;;;;;5061172;28;20217;-74
2022/05/09 10:26:56;;;;;;;5.20;3.47;;;34.70;99.90;;;;;;5054289;28;20219;-74
2022/05/09 10:29:28;;;;;;;3.72;3.42;;;34.70;99.90;;;;;;5061258;28;20278;-73
2022/05/09 10:32:00;;;;;;;4.38;3.97;;;34.50;99.90;;;;;;5055053;28;20206;-72
2022/05/09 10:34:37;;;;;;;3.58;3.28;;;28.10;99.90;;;;;;5057408;28;20210;-71
2022/05/09 10:37:06;;;;;;;3.53;3.22;;;26.10;99.90;;;;;;5069217;28;20572;-71
2022/05/09 10:39:37;;;;;;;5.05;4.35;;;25.90;99.90;;;;;;5067994;28;20202;-71
2022/05/09 10:42:09;;;;;;;4.57;3.58;;;25.50;99.90;;;;;;5054881;28;20198;-73
2022/05/09 10:44:45;;;;;;;3.58;2.85;;;25.10;99.90;;;;;;5060976;28;20202;-70
2022/05/09 10:47:21;;;;;;;7.13;3.35;;;25.10;99.90;;;;;;5064356;28;20255;-69
2022/05/09 10:49:52;;;;;;;5.38;3.60;;;25.40;99.90;;;;;;5059584;28;20230;-70
2022/05/09 10:52:41;;;;;;;4.50;3.47;;;24.80;99.90;;;;;;5070573;28;20202;-70
2022/05/09 10:55:18;;;;;;;4.18;3.72;;;24.70;99.90;;;;;;5068644;28;20716;-69
2022/05/09 10:57:50;;;;;;;4.80;4.30;;;24.90;99.90;;;;;;5062776;28;20214;-69
2022/05/09 11:00:23;;;;;;;3.22;2.83;;;24.90;99.90;;;;;;5067536;28;20209;-69
2022/05/09 11:02:59;;;;;;;4.03;2.90;;;24.80;99.90;;;;;;5071555;28;20673;-69
2022/05/09 11:05:35;;;;;;;4.63;3.55;;;25.40;99.90;;;;;;5070368;28;20210;-69
2022/05/09 11:08:09;;;;;;;4.20;3.22;;;25.80;99.90;;;;;;5054279;28;20272;-69
2022/05/09 11:10:42;;;;;;;6.72;3.75;;;25.70;99.90;;;;;;5051892;28;20230;-70
2022/05/09 11:13:26;;;;;;;4.75;3.78;;;25.80;99.90;;;;;;5054851;28;20198;-70
2022/05/09 11:16:12;;;;;;;5.10;3.60;;;25.90;99.90;;;;;;5051810;28;20203;-70
2022/05/09 11:19:02;;;;;;;3.45;3.00;;;25.30;99.90;;;;;;5052557;28;20224;-69
2022/05/09 11:21:39;;;;;;;8.15;4.30;;;25.70;99.90;;;;;;5056590;28;20301;-70
2022/05/09 11:24:21;;;;;;;6.82;4.28;;;24.90;99.90;;;;;;5059022;28;20897;-70
2022/05/09 11:27:00;;;;;;;5.45;3.90;;;25.50;99.90;;;;;;5049823;28;20198;-70
2022/05/09 11:29:54;;;;;;;5.40;3.05;;;25.60;99.90;;;;;;5050712;28;20712;-70
2022/05/09 11:32:36;;;;;;;4.22;3.83;;;25.80;99.90;;;;;;5051181;28;20215;-71
2022/05/09 11:35:31;;;;;;;4.70;3.40;;;25.80;99.90;;;;;;5051385;28;20203;-69
2022/05/09 11:38:40;;;;;;;7.20;4.25;;;25.60;99.90;;;;;;5038220;28;20214;-72
2022/05/09 11:41:22;;;;;;;7.80;3.53;;;25.80;99.90;;;;;;5029202;28;20203;-70
2022/05/09 11:44:04;;;;;;;3.65;3.33;;;25.60;99.90;;;;;;5045746;28;20207;-68
2022/05/09 11:46:52;;;;;;;5.53;4.82;;;25.70;99.90;;;;;;5050043;28;20300;-68
2022/05/09 11:49:34;;;;;;;3.83;3.20;;;26.00;99.90;;;;;;5049258;28;20203;-68
2022/05/09 11:52:07;;;;;;;4.57;3.53;;;25.80;99.90;;;;;;5050274;28;20203;-68
2022/05/09 11:54:38;;;;;;;7.57;3.72;;;25.70;99.90;;;;;;5067840;28;20263;-68
2022/05/09 11:57:12;;;;;;;3.42;2.92;;;25.70;99.90;;;;;;5071043;28;20232;-68
2022/05/09 11:59:49;;;;;;;3.92;3.17;;;25.90;99.90;;;;;;5070815;28;20731;-68
2022/05/09 12:02:16;;;;;;;2.60;2.40;;;26.00;99.90;;;;;;5070523;28;20244;-68
2022/05/09 12:04:46;;;;;;;3.25;2.78;;;26.40;99.90;;;;;;5070608;28;20263;-69
2022/05/09 12:07:45;;;;;;;2.95;2.70;;;26.40;99.90;;;;;;5070528;28;20206;-69
2022/05/09 12:10:28;;;;;;;3.42;3.10;;;26.20;99.90;;;;;;5070428;28;20233;-69
2022/05/09 12:12:58;;;;;;;2.97;2.67;;;26.50;99.90;;;;;;5070759;28;20293;-68
2022/05/09 12:15:58;;;;;;;8.02;3.28;;;26.60;99.90;;;;;;5070440;28;20202;-69
2022/05/09 12:18:31;;;;;;;4.68;3.08;;;26.60;99.90;;;;;;5070322;28;20542;-69
2022/05/09 12:21:12;;;;;;;3.13;2.80;;;27.00;99.90;;;;;;5070810;28;20224;-68
2022/05/09 12:24:30;;;;;;;4.45;2.80;;;27.00;99.90;;;;;;5070812;28;20206;-68
2022/05/09 12:26:57;;;;;;;3.45;3.20;;;26.80;99.90;;;;;;5070787;28;20332;-68
2022/05/09 12:29:51;;;;;;;2.88;2.38;;;27.00;99.90;;;;;;5070416;28;20197;-69
2022/05/09 12:32:19;;;;;;;3.85;2.92;;;26.70;99.90;;;;;;5070098;28;20209;-68
2022/05/09 12:34:47;;;;;;;3.38;3.17;;;26.80;99.90;;;;;;5070969;28;20198;-68
2022/05/09 12:37:22;;;;;;;3.50;3.20;;;26.80;99.90;;;;;;5070256;28;20279;-69
2022/05/09 12:39:52;;;;;;;2.20;2.10;;;27.00;99.90;;;;;;5070613;28;20201;-68
2022/05/09 12:42:32;;;;;;;2.67;2.47;;;26.90;99.90;;;;;;5058497;28;20205;-69
2022/05/09 12:45:04;;;;;;;3.17;2.88;;;26.90;99.90;;;;;;5059047;28;20201;-68
2022/05/09 12:47:35;;;;;;;2.42;2.22;;;26.70;99.90;;;;;;5064195;28;20276;-69
2022/05/09 12:50:06;;;;;;;3.38;3.10;;;26.90;99.90;;;;;;5073886;28;20296;-68
2022/05/09 12:52:39;;;;;;;3.28;3.08;;;26.60;99.90;;;;;;5074572;28;20289;-68
2022/05/09 12:57:52;;;;;;;3.20;2.58;;;26.40;99.90;;;;;;5072854;28;20200;-69
2022/05/09 13:00:21;;;;;;;4.03;3.13;;;26.90;99.90;;;;;;5073934;28;20673;-68
2022/05/09 13:02:48;;;;;;;2.92;2.50;;;26.90;99.90;;;;;;5067988;28;20241;-68
2022/05/09 13:05:17;;;;;;;2.53;2.20;;;27.10;99.90;;;;;;5058066;28;20294;-68
2022/05/09 13:07:56;;;;;;;3.15;2.88;;;27.00;99.90;;;;;;5070370;28;20731;-71
2022/05/09 13:10:23;;;;;;;3.13;2.83;;;26.80;99.90;;;;;;5073145;28;20267;-71
2022/05/09 13:12:56;;;;;;;4.05;2.97;;;26.70;99.90;;;;;;5073227;28;20390;-70
2022/05/09 13:15:24;;;;;;;3.35;3.05;;;26.70;99.90;;;;;;5072499;28;20198;-71
2022/05/09 13:17:57;;;;;;;3.35;2.58;;;26.70;99.90;;;;;;5073726;28;20202;-73
2022/05/09 13:20:27;;;;;;;4.15;2.70;;;26.30;99.90;;;;;;5073461;28;20272;-69